Time;durP1;ratioP1;P1;durP2;ratioP2;P2;SDS_P1;SDS_P2;PMS_P1;PMS_P2;Temp;Humidity;BMP_temperature;BMP_pressure;BME280_temperature;BME280_humidity;BME280_pressure;Samples;Min_cycle;Max_cycle;Signal;HPM_P1;HPM_P2
2023/03/10 00:01:32;;;;;;;33.87;7.07;;;15.40;58.60;;;;;;5070098;28;20203;-86
2023/03/10 00:04:00;;;;;;;31.90;7.23;;;15.40;58.00;;;;;;5067731;28;20216;-86
2023/03/10 00:06:30;;;;;;;63.47;9.37;;;15.30;58.00;;;;;;5066605;28;20208;-86
2023/03/10 00:08:58;;;;;;;30.20;7.10;;;15.40;58.00;;;;;;5070138;28;20205;-86
2023/03/10 00:11:25;;;;;;;46.17;7.87;;;15.40;58.00;;;;;;5068169;28;20672;-86
2023/03/10 00:13:52;;;;;;;39.40;7.30;;;15.40;58.00;;;;;;5069183;28;20197;-87
2023/03/10 00:16:23;;;;;;;36.10;7.30;;;15.40;58.00;;;;;;5068503;28;20198;-88
2023/03/10 00:18:53;;;;;;;41.43;7.33;;;15.40;58.10;;;;;;5069882;28;20197;-85
2023/03/10 00:21:21;;;;;;;37.20;6.90;;;15.40;58.00;;;;;;5069583;28;20720;-85
2023/03/10 00:23:48;;;;;;;37.30;7.43;;;15.40;58.10;;;;;;5070117;28;20200;-87
2023/03/10 00:26:17;;;;;;;39.37;6.97;;;15.30;58.00;;;;;;5070121;28;20289;-86
2023/03/10 00:28:44;;;;;;;30.80;6.70;;;15.40;58.10;;;;;;5069787;28;20204;-86
2023/03/10 00:31:14;;;;;;;32.93;6.40;;;15.40;58.10;;;;;;5068522;28;20254;-87
2023/03/10 00:33:42;;;;;;;39.23;7.10;;;15.40;58.10;;;;;;5068963;28;20212;-87
2023/03/10 00:36:11;;;;;;;30.90;6.63;;;15.40;58.10;;;;;;5069990;28;20233;-86
2023/03/10 00:38:40;;;;;;;35.13;6.77;;;15.40;58.20;;;;;;5069111;28;20227;-86
2023/03/10 00:41:09;;;;;;;43.07;7.43;;;15.30;58.00;;;;;;5069814;28;20206;-86
2023/03/10 00:43:36;;;;;;;38.03;7.37;;;15.40;58.10;;;;;;5068199;28;20225;-88
2023/03/10 00:46:04;;;;;;;32.50;6.47;;;15.40;58.10;;;;;;5068351;28;20653;-85
2023/03/10 00:48:31;;;;;;;51.10;8.20;;;15.40;58.10;;;;;;5067638;28;20205;-86
2023/03/10 00:51:00;;;;;;;35.70;7.23;;;15.40;58.20;;;;;;5067398;28;20202;-88
2023/03/10 00:53:27;;;;;;;36.17;6.87;;;15.40;58.20;;;;;;5069578;28;20200;-87
2023/03/10 00:56:00;;;;;;;32.20;6.73;;;15.30;58.10;;;;;;5070158;28;20224;-89
2023/03/10 00:58:30;;;;;;;61.97;8.67;;;15.40;58.20;;;;;;5066843;28;20679;-86
2023/03/10 01:00:57;;;;;;;39.10;7.03;;;15.40;58.20;;;;;;5067356;28;20212;-87
2023/03/10 01:03:33;;;;;;;52.37;8.33;;;15.30;58.10;;;;;;5070398;28;20211;-85
2023/03/10 01:06:01;;;;;;;42.00;7.60;;;15.30;58.20;;;;;;5065871;28;20211;-86
2023/03/10 01:08:28;;;;;;;36.73;7.10;;;15.40;58.20;;;;;;5066916;28;20212;-85
2023/03/10 01:10:55;;;;;;;35.90;6.57;;;15.40;58.20;;;;;;5068342;28;20199;-86
2023/03/10 01:13:22;;;;;;;38.47;7.40;;;15.40;58.20;;;;;;5068625;28;20207;-85
2023/03/10 01:15:49;;;;;;;39.90;6.77;;;15.40;58.20;;;;;;5068761;28;20874;-86
2023/03/10 01:18:17;;;;;;;33.67;6.93;;;15.40;58.20;;;;;;5067515;28;20619;-86
2023/03/10 01:20:44;;;;;;;35.93;6.80;;;15.40;58.20;;;;;;5067382;28;20204;-89
2023/03/10 01:23:16;;;;;;;34.73;6.93;;;15.40;58.30;;;;;;5067181;28;20206;-86
2023/03/10 01:25:43;;;;;;;40.03;6.93;;;15.40;58.30;;;;;;5068712;28;20195;-86
2023/03/10 01:28:10;;;;;;;36.40;6.90;;;15.40;58.20;;;;;;5068445;28;21047;-85
2023/03/10 01:30:38;;;;;;;32.57;6.77;;;15.40;58.30;;;;;;5068903;28;20306;-86
2023/03/10 01:33:05;;;;;;;35.70;7.03;;;15.30;58.80;;;;;;5067506;28;20623;-86
2023/03/10 01:35:32;;;;;;;33.93;6.83;;;15.30;58.20;;;;;;5069035;28;20235;-87
2023/03/10 01:37:59;;;;;;;37.67;7.23;;;15.40;58.30;;;;;;5067337;28;20207;-87
2023/03/10 01:40:28;;;;;;;37.17;7.00;;;15.40;58.30;;;;;;5069093;28;20202;-85
2023/03/10 01:43:28;;;;;;;37.37;7.10;;;15.40;58.40;;;;;;5068470;28;20224;-86
2023/03/10 01:46:39;;;;;;;44.00;7.33;;;15.40;58.40;;;;;;5068970;28;20212;-86
2023/03/10 01:49:12;;;;;;;35.40;6.80;;;15.40;58.40;;;;;;5067577;28;20199;-88
2023/03/10 01:51:42;;;;;;;39.20;7.30;;;15.40;58.30;;;;;;5066865;28;20571;-85
2023/03/10 01:54:14;;;;;;;44.73;7.60;;;15.40;58.30;;;;;;5067624;28;20203;-84
2023/03/10 01:56:43;;;;;;;42.77;7.27;;;15.40;58.40;;;;;;5068240;28;20229;-86
2023/03/10 01:59:11;;;;;;;34.40;6.80;;;15.40;58.40;;;;;;5068158;28;20205;-86
2023/03/10 02:01:37;;;;;;;29.70;6.27;;;15.40;58.40;;;;;;5068017;28;20750;-85
2023/03/10 02:04:08;;;;;;;46.97;8.32;;;15.40;58.40;;;;;;5065417;28;20554;-85
2023/03/10 02:06:37;;;;;;;35.57;7.03;;;15.40;58.60;;;;;;5067762;28;20210;-86
2023/03/10 02:09:06;;;;;;;34.80;6.80;;;15.40;58.60;;;;;;5067317;28;20197;-84
2023/03/10 02:11:33;;;;;;;42.13;7.43;;;15.40;58.50;;;;;;5067027;28;20198;-85
2023/03/10 02:14:05;;;;;;;44.90;7.60;;;15.40;58.40;;;;;;5066589;28;20787;-85
2023/03/10 02:16:32;;;;;;;34.07;6.87;;;15.40;58.40;;;;;;5066098;28;20643;-86
2023/03/10 02:18:59;;;;;;;44.80;7.87;;;15.40;58.50;;;;;;5065671;28;20205;-86
2023/03/10 02:21:37;;;;;;;43.33;7.63;;;15.40;58.40;;;;;;5068180;28;20272;-86
2023/03/10 02:24:11;;;;;;;34.87;6.40;;;15.40;58.50;;;;;;5068101;28;20208;-87
2023/03/10 02:26:47;;;;;;;44.73;7.47;;;15.40;58.40;;;;;;5067753;28;20663;-86
2023/03/10 02:29:22;;;;;;;36.07;6.53;;;15.50;58.50;;;;;;5068061;28;20216;-86
2023/03/10 02:31:50;;;;;;;37.50;6.70;;;15.40;58.40;;;;;;5067204;28;20196;-86
2023/03/10 02:34:17;;;;;;;55.03;8.20;;;15.40;58.40;;;;;;5062112;28;20205;-85
2023/03/10 02:36:43;;;;;;;44.70;7.53;;;15.40;58.40;;;;;;5065836;28;20225;-85
2023/03/10 02:39:10;;;;;;;43.27;7.40;;;15.40;58.40;;;;;;5067964;28;20196;-86
2023/03/10 02:41:39;;;;;;;38.93;7.00;;;15.40;58.40;;;;;;5067442;28;20716;-86
2023/03/10 02:44:11;;;;;;;31.60;6.30;;;15.40;58.40;;;;;;5067494;28;20230;-86
2023/03/10 02:46:42;;;;;;;38.70;6.87;;;15.40;58.40;;;;;;5067968;28;20598;-85
2023/03/10 02:49:10;;;;;;;36.67;6.80;;;15.40;58.40;;;;;;5065949;28;20203;-86
2023/03/10 02:51:40;;;;;;;42.13;7.57;;;15.40;58.40;;;;;;5066803;28;20255;-85
2023/03/10 02:54:11;;;;;;;38.93;7.33;;;15.40;58.40;;;;;;5068330;28;20276;-84
2023/03/10 02:56:39;;;;;;;37.33;6.47;;;15.40;58.40;;;;;;5066016;28;20235;-86
2023/03/10 02:59:07;;;;;;;45.40;6.93;;;15.40;58.40;;;;;;5067835;28;20213;-86
2023/03/10 03:01:34;;;;;;;36.07;6.67;;;15.40;58.40;;;;;;5068909;28;20211;-85
2023/03/10 03:04:03;;;;;;;38.50;6.93;;;15.40;58.40;;;;;;5067978;28;20216;-85
2023/03/10 03:06:31;;;;;;;34.27;6.90;;;15.40;58.40;;;;;;5070636;28;20235;-85
2023/03/10 03:08:57;;;;;;;61.53;8.80;;;15.40;58.40;;;;;;5069646;28;20205;-85
2023/03/10 03:11:25;;;;;;;37.93;6.77;;;15.40;58.50;;;;;;5070508;28;20202;-85
2023/03/10 03:13:51;;;;;;;32.70;6.77;;;15.50;58.50;;;;;;5071720;28;20192;-85
2023/03/10 03:16:18;;;;;;;57.67;8.37;;;15.40;59.00;;;;;;5071475;28;20235;-87
2023/03/10 03:18:46;;;;;;;35.43;6.20;;;15.40;58.50;;;;;;5067540;28;20209;-85
2023/03/10 03:21:16;;;;;;;38.20;6.83;;;15.40;58.40;;;;;;5068796;28;20218;-87
2023/03/10 03:23:44;;;;;;;28.63;5.80;;;15.40;58.40;;;;;;5070321;28;20212;-88
2023/03/10 03:26:16;;;;;;;46.90;7.40;;;15.40;58.50;;;;;;5071388;28;20245;-86
2023/03/10 03:28:44;;;;;;;43.10;7.50;;;15.40;58.40;;;;;;5071284;28;20207;-85
2023/03/10 03:31:16;;;;;;;36.70;6.30;;;15.40;58.40;;;;;;5069492;28;20204;-86
2023/03/10 03:33:43;;;;;;;39.37;6.90;;;15.40;58.40;;;;;;5070361;28;20206;-86
2023/03/10 03:36:10;;;;;;;42.73;6.70;;;15.40;58.40;;;;;;5067519;28;20227;-86
2023/03/10 03:38:40;;;;;;;33.83;6.30;;;15.40;58.40;;;;;;5070089;28;20207;-88
2023/03/10 03:41:08;;;;;;;42.77;7.27;;;15.30;58.40;;;;;;5069756;28;20196;-86
2023/03/10 03:43:35;;;;;;;44.97;7.00;;;15.40;59.10;;;;;;5069323;28;20225;-86
2023/03/10 03:46:03;;;;;;;35.43;6.37;;;15.40;58.50;;;;;;5069622;28;20218;-87
2023/03/10 03:48:30;;;;;;;67.43;9.00;;;15.40;58.40;;;;;;5067730;28;20203;-88
2023/03/10 03:50:56;;;;;;;33.27;6.60;;;15.40;58.50;;;;;;5055154;28;20199;-85
2023/03/10 03:53:23;;;;;;;34.27;6.50;;;15.40;58.50;;;;;;5070289;28;20212;-86
2023/03/10 03:55:53;;;;;;;42.30;7.30;;;15.40;58.50;;;;;;5070034;28;20224;-85
2023/03/10 03:58:19;;;;;;;37.80;6.73;;;15.40;58.50;;;;;;5070317;28;20193;-86
2023/03/10 04:00:46;;;;;;;42.70;7.13;;;15.40;58.50;;;;;;5069640;28;20640;-88
2023/03/10 04:03:14;;;;;;;41.50;7.23;;;15.40;58.50;;;;;;5050478;28;20590;-92
2023/03/10 04:05:41;;;;;;;32.23;6.00;;;15.30;58.40;;;;;;5070809;28;20216;-86
2023/03/10 04:08:08;;;;;;;57.30;8.07;;;15.40;58.50;;;;;;5068339;28;21052;-87
2023/03/10 04:10:35;;;;;;;49.50;7.97;;;15.40;58.50;;;;;;5068487;28;20200;-86
2023/03/10 04:13:04;;;;;;;32.63;6.23;;;15.40;58.50;;;;;;5067102;28;20630;-87
2023/03/10 04:15:30;;;;;;;39.97;6.63;;;15.40;58.50;;;;;;5068671;28;20694;-86
2023/03/10 04:17:58;;;;;;;49.57;7.43;;;15.40;58.50;;;;;;5069971;28;20212;-86
2023/03/10 04:20:26;;;;;;;45.43;6.97;;;15.40;58.60;;;;;;5070238;28;20204;-86
2023/03/10 04:22:53;;;;;;;27.87;5.63;;;15.50;58.60;;;;;;5070526;28;20925;-86
2023/03/10 04:25:20;;;;;;;44.47;7.03;;;15.40;58.60;;;;;;5069001;28;20656;-87
2023/03/10 04:27:47;;;;;;;39.70;6.40;;;15.40;58.50;;;;;;5070291;28;20216;-87
2023/03/10 04:30:16;;;;;;;52.10;7.80;;;15.40;58.60;;;;;;5070033;28;20204;-86
2023/03/10 04:32:42;;;;;;;32.73;6.30;;;15.40;58.60;;;;;;5070044;28;20212;-86
2023/03/10 04:35:12;;;;;;;32.93;6.27;;;15.40;58.60;;;;;;5067697;28;20240;-86
2023/03/10 04:37:39;;;;;;;33.70;6.27;;;15.40;58.60;;;;;;5069703;28;20193;-86
2023/03/10 04:40:08;;;;;;;44.10;7.40;;;15.40;58.60;;;;;;5069439;28;20751;-86
2023/03/10 04:42:36;;;;;;;33.00;6.53;;;15.40;58.60;;;;;;5069711;28;20229;-85
2023/03/10 04:45:05;;;;;;;56.07;8.27;;;15.40;58.60;;;;;;5068742;28;20343;-86
2023/03/10 04:47:34;;;;;;;31.50;6.23;;;15.40;58.60;;;;;;5068669;28;20204;-86
2023/03/10 04:50:01;;;;;;;26.00;5.80;;;15.40;58.60;;;;;;5069732;28;20206;-86
2023/03/10 04:52:28;;;;;;;62.07;8.83;;;15.40;58.60;;;;;;5067594;28;20568;-86
2023/03/10 04:54:55;;;;;;;39.53;6.47;;;15.30;58.60;;;;;;5068175;28;20200;-86
2023/03/10 04:57:23;;;;;;;74.37;9.63;;;15.40;58.70;;;;;;5067318;28;20234;-86
2023/03/10 04:59:50;;;;;;;32.00;6.37;;;15.40;58.60;;;;;;5067800;28;20373;-86
2023/03/10 05:02:17;;;;;;;37.70;7.03;;;15.30;58.60;;;;;;5065674;28;20685;-86
2023/03/10 05:04:45;;;;;;;37.83;7.03;;;15.40;58.60;;;;;;5068860;28;20529;-85
2023/03/10 05:07:12;;;;;;;44.63;6.93;;;15.40;58.70;;;;;;5066667;28;20296;-86
2023/03/10 05:09:39;;;;;;;42.60;7.20;;;15.40;58.70;;;;;;5068325;28;20201;-85
2023/03/10 05:12:07;;;;;;;35.17;6.70;;;15.40;58.70;;;;;;5069158;28;20210;-86
2023/03/10 05:14:34;;;;;;;45.70;7.43;;;15.40;58.70;;;;;;5065330;28;20196;-86
2023/03/10 05:17:01;;;;;;;38.35;6.85;;;15.50;58.80;;;;;;5068111;28;20452;-86
2023/03/10 05:19:28;;;;;;;65.40;8.77;;;15.30;58.80;;;;;;5066621;28;20218;-87
2023/03/10 05:21:56;;;;;;;38.33;6.77;;;15.40;58.90;;;;;;5068676;28;20229;-86
2023/03/10 05:24:23;;;;;;;45.20;7.33;;;15.30;58.80;;;;;;5068502;28;20206;-94
2023/03/10 05:26:50;;;;;;;34.83;6.87;;;15.40;58.80;;;;;;5068697;28;20257;-88
2023/03/10 05:29:19;;;;;;;56.90;7.80;;;15.40;58.70;;;;;;5055459;28;20232;-86
2023/03/10 05:31:46;;;;;;;36.53;6.37;;;15.40;58.70;;;;;;5068055;28;20886;-91
2023/03/10 05:34:14;;;;;;;37.20;6.67;;;15.40;58.70;;;;;;5067192;28;20198;-86
2023/03/10 05:36:41;;;;;;;33.13;6.67;;;15.40;58.70;;;;;;5068948;28;20235;-86
2023/03/10 05:39:09;;;;;;;30.87;6.40;;;15.40;58.70;;;;;;5067368;28;20265;-86
2023/03/10 05:41:37;;;;;;;34.53;6.80;;;15.40;58.70;;;;;;5067146;28;20724;-85
2023/03/10 05:44:04;;;;;;;33.10;6.33;;;15.40;58.70;;;;;;5065498;28;20232;-86
2023/03/10 05:46:31;;;;;;;52.43;8.23;;;15.50;58.80;;;;;;5067526;28;20209;-85
2023/03/10 05:48:58;;;;;;;44.23;7.73;;;15.40;58.70;;;;;;5062407;28;20204;-86
2023/03/10 05:51:25;;;;;;;40.37;7.37;;;15.40;58.70;;;;;;5069003;28;20196;-89
2023/03/10 05:53:52;;;;;;;37.50;6.40;;;15.40;58.70;;;;;;5066395;28;20208;-89
2023/03/10 05:56:21;;;;;;;53.63;8.00;;;15.40;58.70;;;;;;5066450;28;20707;-87
2023/03/10 05:58:49;;;;;;;57.40;8.37;;;15.40;58.70;;;;;;5048848;28;20192;-91
2023/03/10 06:01:17;;;;;;;63.53;9.13;;;15.40;58.70;;;;;;5064198;28;20204;-86
2023/03/10 06:03:44;;;;;;;38.43;6.90;;;15.40;58.70;;;;;;5066924;28;20203;-86
2023/03/10 06:06:12;;;;;;;35.20;7.00;;;15.40;58.70;;;;;;5063497;28;20214;-86
2023/03/10 06:08:39;;;;;;;37.70;7.13;;;15.40;58.80;;;;;;5064537;28;20739;-84
2023/03/10 06:11:06;;;;;;;34.87;6.57;;;15.40;58.80;;;;;;5068424;28;20279;-86
2023/03/10 06:13:34;;;;;;;33.00;6.17;;;15.40;58.80;;;;;;5069170;28;20210;-85
2023/03/10 06:16:04;;;;;;;49.57;8.20;;;15.50;58.80;;;;;;5063671;28;20695;-86
2023/03/10 06:18:31;;;;;;;46.87;8.00;;;15.40;58.80;;;;;;5047539;28;20643;-86
2023/03/10 06:20:58;;;;;;;44.67;7.50;;;15.40;58.80;;;;;;5053149;28;20205;-86
2023/03/10 06:23:26;;;;;;;32.90;6.47;;;15.50;58.90;;;;;;5048046;28;20618;-86
2023/03/10 06:25:57;;;;;;;38.07;7.23;;;15.40;58.80;;;;;;5048388;28;20736;-89
2023/03/10 06:28:24;;;;;;;46.63;7.97;;;15.40;58.90;;;;;;5047892;28;20444;-87
2023/03/10 06:30:55;;;;;;;41.87;7.27;;;15.50;58.90;;;;;;5065416;28;20214;-86
2023/03/10 06:33:22;;;;;;;36.27;6.67;;;15.40;58.90;;;;;;5067816;28;20240;-86
2023/03/10 06:35:49;;;;;;;39.43;7.27;;;15.40;58.90;;;;;;5067238;28;20201;-86
2023/03/10 06:38:16;;;;;;;37.03;6.97;;;15.40;58.90;;;;;;5070328;28;20534;-86
2023/03/10 06:40:43;;;;;;;32.33;6.37;;;15.40;58.90;;;;;;5070988;28;20208;-86
2023/03/10 06:43:10;;;;;;;65.17;9.07;;;15.40;58.90;;;;;;5070740;28;20320;-86
2023/03/10 06:45:42;;;;;;;41.87;7.57;;;15.40;58.90;;;;;;5070677;28;20284;-85
2023/03/10 06:48:11;;;;;;;39.10;6.90;;;15.40;58.90;;;;;;5071926;28;20204;-86
2023/03/10 06:50:41;;;;;;;62.10;8.87;;;15.50;59.00;;;;;;5069356;28;20197;-86
2023/03/10 06:53:09;;;;;;;36.00;7.20;;;15.40;58.90;;;;;;5072003;28;20200;-90
2023/03/10 06:55:37;;;;;;;63.03;8.57;;;15.40;58.90;;;;;;5070936;28;20226;-95
2023/03/10 06:58:03;;;;;;;35.50;6.80;;;15.40;58.90;;;;;;5071510;28;20242;-86
2023/03/10 07:00:30;;;;;;;40.67;7.67;;;15.40;58.90;;;;;;5071847;28;20196;-86
2023/03/10 07:02:57;;;;;;;38.47;7.63;;;15.40;58.90;;;;;;5071372;28;20210;-86
2023/03/10 07:05:26;;;;;;;50.77;7.90;;;15.40;58.90;;;;;;5071715;28;20211;-85
2023/03/10 07:07:53;;;;;;;33.17;6.40;;;15.40;58.90;;;;;;5071974;28;20205;-85
2023/03/10 07:10:21;;;;;;;36.43;7.80;;;15.40;58.90;;;;;;5071359;28;20624;-91
2023/03/10 07:12:53;;;;;;;40.20;7.37;;;15.40;58.90;;;;;;5071084;28;20204;-94
2023/03/10 07:15:21;;;;;;;61.87;8.70;;;15.40;58.90;;;;;;5070430;28;20212;-88
2023/03/10 07:17:48;;;;;;;31.33;6.77;;;15.40;58.90;;;;;;5071340;28;20235;-92
2023/03/10 07:20:15;;;;;;;37.20;7.07;;;15.40;58.90;;;;;;5070594;28;20218;-92
2023/03/10 07:22:43;;;;;;;33.57;6.80;;;15.40;58.90;;;;;;5072025;28;20205;-91
2023/03/10 07:25:10;;;;;;;36.40;6.80;;;15.40;58.90;;;;;;5071965;28;20200;-86
2023/03/10 07:27:37;;;;;;;42.93;7.57;;;15.40;58.90;;;;;;5072076;28;20208;-93
2023/03/10 07:30:05;;;;;;;36.10;6.63;;;15.40;59.00;;;;;;5070285;28;20199;-90
2023/03/10 07:32:32;;;;;;;49.43;7.63;;;15.40;59.00;;;;;;5070639;28;20623;-93
2023/03/10 07:34:59;;;;;;;46.57;7.97;;;15.40;59.00;;;;;;5064686;28;20280;-94
2023/03/10 07:37:26;;;;;;;38.77;7.27;;;15.40;59.00;;;;;;5061751;28;20679;-93
2023/03/10 07:39:55;;;;;;;65.07;9.17;;;15.30;58.90;;;;;;5071367;28;20200;-87
2023/03/10 07:42:22;;;;;;;32.33;6.50;;;15.40;59.00;;;;;;5051524;28;20230;-86
2023/03/10 07:44:49;;;;;;;44.83;7.40;;;15.40;59.00;;;;;;5050789;28;20211;-86
2023/03/10 07:47:16;;;;;;;33.77;6.57;;;15.40;59.00;;;;;;5057458;28;20205;-86
2023/03/10 07:49:45;;;;;;;45.60;7.93;;;15.50;59.20;;;;;;5070075;28;20672;-87
2023/03/10 07:52:13;;;;;;;37.13;7.10;;;15.40;59.10;;;;;;5071987;28;20292;-89
2023/03/10 07:54:40;;;;;;;41.97;7.30;;;15.40;59.10;;;;;;5074514;28;20211;-88
2023/03/10 07:57:09;;;;;;;37.40;6.73;;;15.50;59.20;;;;;;5061195;28;20216;-91
2023/03/10 07:59:36;;;;;;;41.63;7.40;;;15.40;59.10;;;;;;5060535;28;20662;-86
2023/03/10 08:02:03;;;;;;;39.37;7.20;;;15.40;59.10;;;;;;5070031;28;20192;-92
2023/03/10 08:04:30;;;;;;;34.57;6.60;;;15.30;59.00;;;;;;5070751;28;20205;-85
2023/03/10 08:06:58;;;;;;;33.83;6.20;;;15.40;59.10;;;;;;5070654;28;20204;-86
2023/03/10 08:09:25;;;;;;;38.10;6.97;;;15.40;59.10;;;;;;5071051;28;20252;-93
2023/03/10 08:11:53;;;;;;;33.17;6.80;;;15.40;59.10;;;;;;5071601;28;20614;-86
2023/03/10 08:14:24;;;;;;;32.47;6.47;;;15.40;59.10;;;;;;5070543;28;20194;-86
2023/03/10 08:16:51;;;;;;;36.57;6.73;;;15.40;59.10;;;;;;5065511;28;20554;-92
2023/03/10 08:19:18;;;;;;;31.50;6.40;;;15.40;59.10;;;;;;5071460;28;20203;-87
2023/03/10 08:21:45;;;;;;;33.63;6.57;;;15.40;59.10;;;;;;5070857;28;20307;-87
2023/03/10 08:24:12;;;;;;;41.47;6.90;;;15.40;59.10;;;;;;5068366;28;20703;-88
2023/03/10 08:26:39;;;;;;;39.80;7.27;;;15.40;59.20;;;;;;5068729;28;20676;-88
2023/03/10 08:29:06;;;;;;;26.77;5.90;;;15.40;59.20;;;;;;5070034;28;20231;-88
2023/03/10 08:31:34;;;;;;;30.37;6.00;;;15.40;59.20;;;;;;5065920;28;20200;-90
2023/03/10 08:34:01;;;;;;;28.60;6.03;;;15.40;59.20;;;;;;5065419;28;20203;-89
2023/03/10 08:36:30;;;;;;;37.30;6.93;;;15.40;59.10;;;;;;5068680;28;20192;-87
2023/03/10 08:38:59;;;;;;;52.73;8.03;;;15.50;59.30;;;;;;5069147;28;20287;-84
2023/03/10 08:41:28;;;;;;;30.03;5.90;;;15.40;59.20;;;;;;5069298;28;20254;-85
2023/03/10 08:43:57;;;;;;;40.23;7.00;;;15.40;59.20;;;;;;5069376;28;20221;-84
2023/03/10 08:46:25;;;;;;;31.50;6.73;;;15.40;59.80;;;;;;5071160;28;20203;-92
2023/03/10 08:48:54;;;;;;;26.43;6.23;;;15.40;59.10;;;;;;5070095;28;20661;-86
2023/03/10 08:51:22;;;;;;;25.70;6.33;;;15.40;59.10;;;;;;5069007;28;20213;-84
2023/03/10 08:53:50;;;;;;;37.00;8.27;;;15.40;59.10;;;;;;5068995;28;20211;-87
2023/03/10 08:56:19;;;;;;;40.80;8.53;;;15.40;59.10;;;;;;5069819;28;20201;-84
2023/03/10 08:58:46;;;;;;;59.23;9.57;;;15.40;59.20;;;;;;5067345;28;20754;-85
2023/03/10 09:01:16;;;;;;;27.90;7.10;;;15.40;59.20;;;;;;5067607;28;20213;-86
2023/03/10 09:03:45;;;;;;;34.30;8.00;;;15.50;59.30;;;;;;5069364;28;20204;-85
2023/03/10 09:06:14;;;;;;;40.63;7.93;;;15.50;59.30;;;;;;5062688;28;20577;-85
2023/03/10 09:08:42;;;;;;;47.10;8.87;;;15.50;59.40;;;;;;5049327;28;20212;-87
2023/03/10 09:11:09;;;;;;;34.63;7.77;;;15.50;59.40;;;;;;5066387;28;20212;-86
2023/03/10 09:13:36;;;;;;;35.07;7.03;;;15.50;59.40;;;;;;5068760;28;20564;-86
2023/03/10 09:16:05;;;;;;;32.37;7.40;;;15.50;60.10;;;;;;5069310;28;20192;-87
2023/03/10 09:18:31;;;;;;;24.83;6.47;;;15.60;59.50;;;;;;5069417;28;20236;-88
2023/03/10 09:20:58;;;;;;;28.23;6.93;;;15.70;59.70;;;;;;5069556;28;20643;-88
2023/03/10 09:23:27;;;;;;;27.07;6.97;;;15.60;59.60;;;;;;5069877;28;20190;-88
2023/03/10 09:25:54;;;;;;;32.03;7.40;;;15.70;59.70;;;;;;5066900;28;20206;-92
2023/03/10 09:28:21;;;;;;;38.57;7.57;;;15.70;59.70;;;;;;5069175;28;20213;-89
2023/03/10 09:30:49;;;;;;;24.17;6.20;;;15.70;59.70;;;;;;5068866;28;20994;-86
2023/03/10 09:33:18;;;;;;;36.17;7.17;;;15.80;59.80;;;;;;5068888;28;20250;-86
2023/03/10 09:35:45;;;;;;;28.43;6.73;;;15.90;59.90;;;;;;5069250;28;20202;-86
2023/03/10 09:38:13;;;;;;;30.67;6.70;;;15.90;59.90;;;;;;5069098;28;20689;-88
2023/03/10 09:40:44;;;;;;;36.10;7.40;;;15.90;59.90;;;;;;5066625;28;20257;-86
2023/03/10 09:43:15;;;;;;;24.80;6.17;;;16.00;60.10;;;;;;5061485;28;20223;-87
2023/03/10 09:45:53;;;;;;;24.73;6.20;;;16.00;60.10;;;;;;5049281;28;20659;-87
2023/03/10 09:48:31;;;;;;;39.13;7.33;;;16.10;60.20;;;;;;5049273;28;20679;-88
2023/03/10 09:51:00;;;;;;;34.77;7.30;;;16.10;60.20;;;;;;5049532;28;20609;-86
2023/03/10 09:53:51;;;;;;;43.87;7.63;;;16.20;60.20;;;;;;5049381;28;20253;-87
2023/03/10 09:56:24;;;;;;;32.63;6.80;;;16.30;60.50;;;;;;5064542;28;20209;-85
2023/03/10 09:58:55;;;;;;;36.93;6.80;;;16.30;60.30;;;;;;5067178;28;20235;-87
2023/03/10 10:01:25;;;;;;;35.33;7.10;;;16.40;60.40;;;;;;5065435;28;20201;-86
2023/03/10 10:03:55;;;;;;;36.87;7.17;;;16.40;60.40;;;;;;5067842;28;20223;-87
2023/03/10 10:06:24;;;;;;;33.97;6.50;;;16.50;60.50;;;;;;5065137;28;20204;-87
2023/03/10 10:08:57;;;;;;;38.47;7.33;;;16.50;60.50;;;;;;5068169;28;20218;-88
2023/03/10 10:11:25;;;;;;;36.17;6.97;;;16.50;60.50;;;;;;5068499;28;20888;-85
2023/03/10 10:14:02;;;;;;;39.70;7.33;;;16.60;60.60;;;;;;5066827;28;20211;-87
2023/03/10 10:16:35;;;;;;;39.10;7.50;;;16.60;60.60;;;;;;5068680;28;20194;-86
2023/03/10 10:19:09;;;;;;;34.63;6.63;;;16.70;60.70;;;;;;5068274;28;20252;-86
2023/03/10 10:21:42;;;;;;;31.70;6.57;;;16.70;60.70;;;;;;5067550;28;20213;-87
2023/03/10 10:24:10;;;;;;;42.57;6.67;;;16.80;60.70;;;;;;5065701;28;20292;-87
2023/03/10 10:26:38;;;;;;;28.60;6.70;;;16.80;60.70;;;;;;5068685;28;20202;-88
2023/03/10 10:29:15;;;;;;;45.90;7.73;;;16.90;60.80;;;;;;5068793;28;20582;-87
2023/03/10 10:31:43;;;;;;;28.23;6.57;;;17.00;61.00;;;;;;5049477;28;20209;-88
2023/03/10 10:34:20;;;;;;;47.13;8.17;;;17.00;60.80;;;;;;5048215;28;20207;-86
2023/03/10 10:36:50;;;;;;;29.40;6.57;;;17.10;61.00;;;;;;5062503;28;20218;-86
2023/03/10 10:39:25;;;;;;;46.70;7.60;;;17.10;60.90;;;;;;5063142;28;20249;-87
2023/03/10 10:41:54;;;;;;;34.63;6.67;;;17.20;61.10;;;;;;5067327;28;20222;-88
2023/03/10 10:44:21;;;;;;;40.50;7.43;;;17.20;60.90;;;;;;5068604;28;20206;-86
2023/03/10 10:46:52;;;;;;;42.13;7.33;;;17.20;60.90;;;;;;5068312;28;20202;-91
2023/03/10 10:49:22;;;;;;;42.27;7.63;;;17.30;61.10;;;;;;5068917;28;20206;-90
2023/03/10 10:52:00;;;;;;;53.37;9.03;;;17.40;61.10;;;;;;5065687;28;20208;-92
2023/03/10 10:54:34;;;;;;;66.60;10.17;;;17.40;61.30;;;;;;5045712;28;20247;-92
2023/03/10 10:57:05;;;;;;;30.87;7.00;;;17.40;61.10;;;;;;5064768;28;20217;-91
2023/03/10 10:59:33;;;;;;;51.53;9.53;;;17.50;61.20;;;;;;5066340;28;20334;-90
2023/03/10 11:02:01;;;;;;;35.63;7.93;;;17.50;61.20;;;;;;5070508;28;20286;-90
2023/03/10 11:04:41;;;;;;;31.17;7.43;;;17.60;61.30;;;;;;5083800;28;20290;-91
2023/03/10 11:07:11;;;;;;;36.23;7.77;;;17.60;61.30;;;;;;5059906;28;20618;-92
2023/03/10 11:09:38;;;;;;;28.20;6.93;;;17.70;61.40;;;;;;5061518;28;20277;-92
2023/03/10 11:12:12;;;;;;;47.43;8.40;;;17.70;61.40;;;;;;5064310;28;20202;-91
2023/03/10 11:14:51;;;;;;;38.73;7.70;;;17.80;61.60;;;;;;5067663;28;20264;-92
2023/03/10 11:17:24;;;;;;;37.50;7.60;;;17.80;61.70;;;;;;5065364;28;20206;-92
2023/03/10 11:20:03;;;;;;;22.53;5.83;;;17.90;61.80;;;;;;5069849;28;20209;-96
2023/03/10 11:22:44;;;;;;;27.20;6.17;;;17.90;61.90;;;;;;5071220;28;20571;-90
2023/03/10 11:25:29;;;;;;;25.23;5.83;;;18.00;62.10;;;;;;5084488;28;20190;-94
2023/03/10 11:28:23;;;;;;;34.87;6.47;;;18.10;62.30;;;;;;5084411;28;20226;-93
2023/03/10 11:31:07;;;;;;;39.53;7.43;;;18.10;62.20;;;;;;5070621;28;20213;-91
2023/03/10 11:33:39;;;;;;;43.63;7.63;;;18.20;62.20;;;;;;5069159;28;20618;-91
2023/03/10 11:36:19;;;;;;;40.03;7.10;;;18.20;62.10;;;;;;5071991;28;20298;-91
2023/03/10 11:38:48;;;;;;;53.10;8.07;;;18.20;62.20;;;;;;5071316;28;20227;-91
2023/03/10 11:41:21;;;;;;;51.03;8.10;;;18.40;62.20;;;;;;5070485;28;20658;-91
2023/03/10 11:44:02;;;;;;;50.60;7.67;;;18.40;62.20;;;;;;5051180;28;20227;-91
2023/03/10 11:46:37;;;;;;;31.50;5.77;;;18.40;62.30;;;;;;5063748;28;20203;-91
2023/03/10 11:49:13;;;;;;;57.80;8.47;;;18.50;62.20;;;;;;5069482;28;20309;-92
2023/03/10 11:51:45;;;;;;;35.57;6.07;;;18.50;62.20;;;;;;5067346;28;20218;-91
2023/03/10 11:54:16;;;;;;;42.23;7.47;;;18.50;62.10;;;;;;5073966;28;20210;-91
2023/03/10 11:56:44;;;;;;;32.47;6.43;;;18.60;62.10;;;;;;5056982;28;20208;-91
2023/03/10 11:59:18;;;;;;;37.43;6.33;;;18.60;62.00;;;;;;5058352;28;20314;-91
2023/03/10 12:01:51;;;;;;;62.50;8.60;;;18.70;62.20;;;;;;5054067;28;20215;-91
2023/03/10 12:04:22;;;;;;;40.73;6.73;;;18.70;62.10;;;;;;5050473;28;20312;-91
2023/03/10 12:07:10;;;;;;;40.50;6.60;;;18.70;62.10;;;;;;5050292;28;20283;-91
2023/03/10 12:09:41;;;;;;;37.53;6.80;;;18.80;62.20;;;;;;5067853;28;20226;-92
2023/03/10 12:12:14;;;;;;;43.07;7.53;;;18.80;62.10;;;;;;5069241;28;20279;-90
2023/03/10 12:14:46;;;;;;;39.70;6.77;;;18.80;62.00;;;;;;5070510;28;20281;-90
2023/03/10 12:17:17;;;;;;;34.40;6.23;;;18.80;62.00;;;;;;5068400;28;20318;-91
2023/03/10 12:20:10;;;;;;;44.67;7.50;;;18.80;61.90;;;;;;5067363;28;20310;-91
2023/03/10 12:22:39;;;;;;;33.67;6.30;;;18.90;62.20;;;;;;5070317;28;20191;-91
2023/03/10 12:25:44;;;;;;;42.67;7.07;;;18.90;61.90;;;;;;5068914;28;20318;-91
2023/03/10 12:28:13;;;;;;;40.53;6.83;;;18.90;62.10;;;;;;5070701;28;20341;-93
2023/03/10 12:30:49;;;;;;;33.37;6.30;;;18.90;61.70;;;;;;5069932;28;20272;-91
2023/03/10 12:33:49;;;;;;;57.00;8.17;;;19.00;62.00;;;;;;5069620;28;20203;-92
2023/03/10 12:36:35;;;;;;;39.43;6.80;;;19.00;62.00;;;;;;5066338;28;20267;-91
2023/03/10 12:39:32;;;;;;;38.40;6.40;;;18.90;61.80;;;;;;5070098;28;20219;-92
2023/03/10 12:42:00;;;;;;;33.83;6.73;;;19.00;61.80;;;;;;5069795;28;20216;-92
2023/03/10 12:44:49;;;;;;;38.77;6.20;;;19.00;62.30;;;;;;5068541;28;20303;-93
2023/03/10 12:47:47;;;;;;;43.50;6.97;;;19.00;61.80;;;;;;5054459;28;20206;-92
2023/03/10 12:50:30;;;;;;;45.90;7.27;;;19.00;61.80;;;;;;5049972;28;20216;-93